Time;durP1;ratioP1;P1;durP2;ratioP2;P2;SDS_P1;SDS_P2;PMS_P1;PMS_P2;Temp;Humidity;BMP_temperature;BMP_pressure;BME280_temperature;BME280_humidity;BME280_pressure;Samples;Min_cycle;Max_cycle;Signal;HPM_P1;HPM_P2
2022/07/27 00:02:57;;;;;;;4.18;1.40;;;;;;;15.92;55.55;101599.97;7397026;19;20011;-47
2022/07/27 00:05:45;;;;;;;2.88;1.20;;;;;;;15.89;55.91;101612.66;7400742;19;20006;-48
2022/07/27 00:12:25;;;;;;;1.92;1.30;;;;;;;15.71;56.37;101616.97;7398972;19;20019;-55
2022/07/27 00:18:32;;;;;;;3.15;1.25;;;;;;;15.67;56.87;101613.31;7391930;19;20406;-47
2022/07/27 00:31:33;;;;;;;7.45;5.30;;;;;;;15.38;57.59;101594.94;7396391;19;20051;-50
2022/07/27 00:34:21;;;;;;;5.15;3.95;;;;;;;15.40;57.79;101595.41;7395810;19;20010;-50
2022/07/27 00:37:08;;;;;;;5.05;3.33;;;;;;;15.38;57.79;101597.72;7398122;19;20003;-50
2022/07/27 00:39:56;;;;;;;5.28;3.38;;;;;;;15.40;58.30;101605.75;7399934;19;20022;-49
2022/07/27 00:42:44;;;;;;;5.68;3.33;;;;;;;15.41;58.35;101596.22;7395894;19;20021;-50
2022/07/27 00:45:32;;;;;;;4.90;3.83;;;;;;;15.37;58.44;101598.09;7398825;19;20011;-50
2022/07/27 00:48:20;;;;;;;10.10;6.32;;;;;;;15.33;58.75;101595.19;7399023;19;20018;-49
2022/07/27 00:51:07;;;;;;;16.67;10.18;;;;;;;15.29;59.06;101597.09;7400050;19;20007;-47
2022/07/27 00:53:55;;;;;;;15.63;8.85;;;;;;;15.25;59.47;101599.75;7399665;19;20007;-47
2022/07/27 00:56:43;;;;;;;18.33;12.20;;;;;;;15.21;59.39;101593.28;7397416;19;20037;-50
2022/07/27 00:59:31;;;;;;;19.25;11.55;;;;;;;15.23;59.66;101584.56;7398070;19;20426;-49
2022/07/27 01:02:19;;;;;;;16.88;12.32;;;;;;;15.21;59.91;101582.13;7398336;19;20410;-52
2022/07/27 01:05:09;;;;;;;18.92;11.20;;;;;;;15.18;60.08;101582.03;7397302;19;20029;-49
2022/07/27 01:07:59;;;;;;;12.07;8.73;;;;;;;15.16;60.05;101579.59;7398385;19;20420;-55
2022/07/27 01:10:47;;;;;;;14.73;8.05;;;;;;;15.08;60.47;101576.97;7399549;19;20019;-52
2022/07/27 01:13:37;;;;;;;13.40;8.32;;;;;;;15.00;60.43;101570.38;7396187;19;20381;-52
2022/07/27 01:16:08;;;;;;;13.43;7.28;;;;;;;14.98;60.44;101567.13;7396636;19;20017;-49
2022/07/27 01:18:38;;;;;;;9.77;5.10;;;;;;;14.92;60.93;101568.53;7395623;19;20025;-48
2022/07/27 01:21:08;;;;;;;8.32;4.60;;;;;;;14.89;61.22;101552.53;7397910;19;20018;-50
2022/07/27 01:23:35;;;;;;;10.65;5.53;;;;;;;14.90;61.00;101565.31;7396888;19;20146;-49
2022/07/27 01:26:04;;;;;;;8.55;5.15;;;;;;;14.88;61.17;101559.25;7396819;19;20014;-51
2022/07/27 01:28:31;;;;;;;6.55;3.83;;;;;;;14.85;61.15;101561.97;7395269;19;20044;-52
2022/07/27 01:30:59;;;;;;;9.68;4.25;;;;;;;14.84;61.27;101563.94;7398253;19;20014;-50
2022/07/27 01:33:27;;;;;;;5.35;3.30;;;;;;;14.79;61.50;101558.59;7395485;19;20014;-49
2022/07/27 01:35:56;;;;;;;5.95;3.30;;;;;;;14.75;61.76;101557.69;7394748;19;20014;-48
2022/07/27 01:41:54;;;;;;;6.82;3.67;;;;;;;14.60;61.65;101552.84;7396916;19;20538;-48
2022/07/27 01:48:08;;;;;;;6.97;4.85;;;;;;;14.59;61.88;101559.56;7400039;19;20002;-49
2022/07/27 01:50:56;;;;;;;4.90;2.47;;;;;;;14.53;61.81;101553.44;7396865;19;20483;-49
2022/07/27 01:53:44;;;;;;;5.10;3.45;;;;;;;14.49;62.11;101552.53;7396186;19;20010;-49
2022/07/27 01:56:32;;;;;;;3.95;2.92;;;;;;;14.52;61.87;101554.63;7398200;19;20014;-49
2022/07/27 01:59:20;;;;;;;3.58;2.63;;;;;;;14.48;62.24;101559.25;7384685;19;20010;-48
2022/07/27 02:13:54;;;;;;;9.15;3.53;;;;;;;14.38;62.42;101558.94;7391483;19;20022;-47
2022/07/27 02:16:42;;;;;;;5.88;2.42;;;;;;;14.32;62.46;101550.00;7397793;19;20026;-55
2022/07/27 02:19:30;;;;;;;5.13;2.92;;;;;;;14.33;62.54;101550.81;7397685;19;20011;-48
2022/07/27 02:25:43;;;;;;;6.57;3.15;;;;;;;14.26;62.68;101556.16;7400508;19;20002;-49
2022/07/27 02:31:41;;;;;;;6.63;2.90;;;;;;;14.22;63.18;101552.44;7397333;19;20018;-49
2022/07/27 02:34:08;;;;;;;7.15;3.55;;;;;;;14.22;62.88;101533.75;7402831;19;20376;-50
2022/07/27 02:40:15;;;;;;;4.57;2.40;;;;;;;14.18;63.57;101526.44;7401847;19;20011;-48
2022/07/27 02:42:45;;;;;;;4.15;3.05;;;;;;;14.17;63.60;101530.38;7399266;19;20014;-48
2022/07/27 02:49:23;;;;;;;5.93;3.20;;;;;;;14.08;64.09;101529.72;7364316;19;20025;-49
2022/07/27 02:52:24;;;;;;;3.00;2.05;;;;;;;14.07;63.88;101525.31;7394065;19;20044;-52
2022/07/27 02:55:12;;;;;;;4.35;2.00;;;;;;;14.06;64.08;101529.25;7387806;19;20070;-51
2022/07/27 02:58:00;;;;;;;5.90;1.92;;;;;;;14.06;64.33;101524.47;7351747;19;20010;-53
2022/07/27 03:00:32;;;;;;;3.28;1.80;;;;;;;14.08;64.67;101526.94;7337127;19;20007;-52
2022/07/27 03:03:00;;;;;;;3.97;2.13;;;;;;;14.05;64.76;101522.88;7337335;19;20014;-53
2022/07/27 03:05:27;;;;;;;3.03;1.90;;;;;;;14.02;65.19;101521.59;7339213;19;20403;-52
2022/07/27 03:07:55;;;;;;;3.28;2.08;;;;;;;14.00;65.33;101526.69;7341490;19;20444;-53
2022/07/27 03:10:22;;;;;;;3.38;2.20;;;;;;;13.97;65.82;101516.28;7337200;19;20394;-51
2022/07/27 03:12:50;;;;;;;3.17;1.27;;;;;;;13.96;66.04;101513.81;7337223;19;20097;-50
2022/07/27 03:15:18;;;;;;;3.47;1.50;;;;;;;13.96;66.10;101522.19;7332769;19;20035;-51
2022/07/27 03:17:45;;;;;;;5.07;1.90;;;;;;;13.95;66.32;101524.16;7339574;19;20077;-54
2022/07/27 03:20:16;;;;;;;2.72;1.70;;;;;;;13.93;66.44;101525.66;7339908;19;20025;-53
2022/07/27 03:22:44;;;;;;;2.17;1.77;;;;;;;13.93;66.58;101526.47;7335001;19;20018;-54
2022/07/27 03:25:32;;;;;;;2.10;1.40;;;;;;;13.91;66.43;101517.66;7334996;19;20026;-51
2022/07/27 03:28:19;;;;;;;2.35;1.25;;;;;;;13.88;66.75;101515.56;7329238;19;20022;-51
2022/07/27 03:30:56;;;;;;;3.22;1.50;;;;;;;13.87;66.95;101519.50;7334742;19;20018;-53
2022/07/27 03:33:24;;;;;;;1.98;1.15;;;;;;;13.85;66.83;101519.06;7334886;19;20118;-50
2022/07/27 03:35:54;;;;;;;4.68;1.52;;;;;;;13.84;67.02;101514.66;7337205;19;20021;-52
2022/07/27 03:38:42;;;;;;;1.83;0.90;;;;;;;13.79;67.04;101509.31;7333891;19;20039;-52
2022/07/27 03:41:30;;;;;;;7.13;2.03;;;;;;;13.75;67.35;101522.31;7339839;19;20123;-52
2022/07/27 03:44:18;;;;;;;2.55;1.10;;;;;;;13.74;67.28;101517.88;7340165;19;20031;-52
2022/07/27 03:47:06;;;;;;;1.02;0.95;;;;;;;13.69;67.46;101526.47;7333657;19;20026;-52
2022/07/27 03:49:54;;;;;;;1.60;0.93;;;;;;;13.65;67.75;101517.19;7336635;19;20646;-52
2022/07/27 03:52:22;;;;;;;2.63;1.05;;;;;;;13.64;67.47;101526.69;7338506;19;20010;-53
2022/07/27 03:54:49;;;;;;;6.47;1.50;;;;;;;13.66;67.41;101527.16;7332985;19;20067;-51
2022/07/27 03:57:17;;;;;;;1.00;0.80;;;;;;;13.61;67.59;101527.38;7334500;19;20023;-52
2022/07/27 03:59:44;;;;;;;2.20;1.13;;;;;;;13.60;67.87;101520.22;7362021;19;20062;-49
2022/07/27 04:02:12;;;;;;;2.90;1.10;;;;;;;13.59;67.76;101521.38;7387281;19;20025;-47
2022/07/27 04:04:40;;;;;;;1.13;1.02;;;;;;;13.55;67.95;101514.06;7382727;19;20074;-50
2022/07/27 04:07:07;;;;;;;3.17;1.05;;;;;;;13.53;68.32;101516.38;7380510;19;20017;-55
2022/07/27 04:09:38;;;;;;;2.33;1.27;;;;;;;13.52;67.98;101518.34;7364023;19;20018;-47
2022/07/27 04:12:08;;;;;;;;;;;;;;;13.58;67.92;101507.81;7387875;19;20028;-49
2022/07/27 04:14:35;;;;;;;3.47;1.30;;;;;;;13.56;67.64;101508.16;7388446;19;19919;-48
2022/07/27 04:39:13;;;;;;;1.73;1.13;;;;;;;13.36;68.41;101506.28;7374455;19;20025;-53
2022/07/27 04:42:02;;;;;;;2.70;1.38;;;;;;;13.42;68.07;101502.13;7344929;19;21510;-52
2022/07/27 04:44:50;;;;;;;2.90;1.35;;;;;;;13.52;68.33;101501.66;7339615;19;20035;-50
2022/07/27 04:47:17;;;;;;;1.92;1.50;;;;;;;13.53;68.00;101499.69;7381366;19;20014;-49
2022/07/27 04:49:45;;;;;;;2.83;1.45;;;;;;;13.56;68.49;101505.34;7377938;19;20031;-47
2022/07/27 04:52:14;;;;;;;2.58;1.63;;;;;;;13.64;68.50;101500.84;7351509;19;20018;-52
2022/07/27 04:54:42;;;;;;;2.15;1.00;;;;;;;13.68;68.50;101501.78;7342297;19;20705;-54
2022/07/27 04:57:10;;;;;;;2.00;1.40;;;;;;;13.71;68.49;101501.91;7344956;19;20157;-51
2022/07/27 04:59:37;;;;;;;3.33;1.65;;;;;;;13.76;68.55;101500.84;7341802;19;20023;-52
2022/07/27 05:02:05;;;;;;;3.03;1.42;;;;;;;13.83;68.85;101504.69;7342330;19;20010;-51
2022/07/27 05:04:34;;;;;;;3.38;2.20;;;;;;;13.86;68.88;101503.16;7341885;19;20464;-51
2022/07/27 05:07:04;;;;;;;2.47;1.35;;;;;;;13.92;68.81;101508.16;7344890;19;20030;-50
2022/07/27 05:09:32;;;;;;;3.75;1.52;;;;;;;13.96;69.00;101503.50;7359166;19;20021;-52
2022/07/27 05:11:59;;;;;;;1.80;1.27;;;;;;;14.01;68.80;101511.63;7389506;19;20010;-49
2022/07/27 05:14:29;;;;;;;2.38;1.27;;;;;;;14.05;68.80;101506.16;7383345;19;20018;-53
2022/07/27 05:16:56;;;;;;;2.55;1.13;;;;;;;14.10;68.88;101507.91;7385836;19;20471;-50
2022/07/27 05:19:45;;;;;;;2.92;1.00;;;;;;;14.14;68.79;101503.25;7363805;19;20014;-54
2022/07/27 05:22:33;;;;;;;1.52;0.80;;;;;;;14.19;68.94;101511.38;7360662;19;20023;-50
2022/07/27 05:25:26;;;;;;;2.67;1.30;;;;;;;14.24;68.77;101514.72;7379453;19;20019;-47
2022/07/27 05:28:15;;;;;;;4.88;1.20;;;;;;;14.30;68.73;101510.53;7383030;19;20015;-54
2022/07/27 06:53:20;;;;;;;2.88;1.50;;;;;;;15.81;67.13;101491.63;7382195;19;20040;-53
2022/07/27 06:56:08;;;;;;;2.15;1.58;;;;;;;15.90;66.80;101497.00;7387470;19;20031;-50
2022/07/27 06:58:36;;;;;;;6.60;1.55;;;;;;;15.98;66.67;101493.22;7389942;19;20006;-49
2022/07/27 07:01:04;;;;;;;2.08;0.90;;;;;;;16.08;66.60;101481.47;7387941;19;20078;-52
2022/07/27 07:03:37;;;;;;;2.20;1.20;;;;;;;16.18;66.54;101494.03;7385588;19;20017;-50
2022/07/27 07:06:05;;;;;;;7.05;1.48;;;;;;;16.30;66.41;101493.94;7384550;19;20444;-48
2022/07/27 07:08:33;;;;;;;1.35;0.88;;;;;;;16.38;66.22;101485.34;7384008;19;20126;-52
2022/07/27 07:11:01;;;;;;;2.45;1.13;;;;;;;16.53;66.01;101488.47;7362863;19;20015;-47
2022/07/27 07:13:29;;;;;;;2.17;0.77;;;;;;;16.61;65.69;101496.63;7385155;19;20111;-49
2022/07/27 07:16:04;;;;;;;1.65;0.77;;;;;;;16.72;65.89;101494.06;7387844;19;20017;-49
2022/07/27 07:22:17;;;;;;;3.58;1.50;;;;;;;16.78;65.45;101482.22;7383138;19;20007;-47
2022/07/27 07:24:46;;;;;;;4.65;0.68;;;;;;;16.83;64.95;101489.50;7394241;19;20010;-49
2022/07/27 07:27:22;;;;;;;2.15;0.98;;;;;;;16.89;65.21;101476.84;7387614;19;20508;-50
2022/07/27 07:29:50;;;;;;;2.22;0.98;;;;;;;16.92;64.92;101484.47;7383854;19;20006;-48
2022/07/27 07:39:08;;;;;;;2.60;1.05;;;;;;;17.08;64.78;101485.16;7386264;19;20003;-47
2022/07/27 07:41:37;;;;;;;5.35;0.98;;;;;;;17.14;64.64;101483.69;7386199;19;20486;-47
2022/07/27 07:44:05;;;;;;;3.08;0.82;;;;;;;17.19;64.59;101488.97;7382248;19;20006;-51
2022/07/27 07:46:35;;;;;;;3.35;0.60;;;;;;;17.22;63.99;101479.84;7385503;19;20018;-52
2022/07/27 07:49:04;;;;;;;1.30;0.75;;;;;;;17.25;64.17;101473.50;7386183;19;20337;-48
2022/07/27 07:51:32;;;;;;;1.75;0.50;;;;;;;17.29;63.91;101479.19;7390021;19;20017;-46
2022/07/27 07:54:00;;;;;;;5.72;1.38;;;;;;;17.29;63.37;101476.38;7388077;19;20018;-47
2022/07/27 08:11:24;;;;;;;1.45;0.40;;;;;;;17.93;62.88;101490.25;7381750;19;20022;-51
2022/07/27 08:13:56;;;;;;;2.80;0.68;;;;;;;18.27;63.18;101485.53;7377802;19;20010;-53
2022/07/27 08:16:25;;;;;;;2.17;0.60;;;;;;;18.59;62.74;101492.41;7381095;19;20052;-50
2022/07/27 08:18:53;;;;;;;2.15;0.45;;;;;;;18.94;61.57;101491.22;7381068;19;20018;-48
2022/07/27 08:24:52;;;;;;;5.05;0.65;;;;;;;20.04;59.45;101493.88;7388222;19;20014;-52
2022/07/27 08:27:58;;;;;;;1.40;0.40;;;;;;;20.49;55.57;101484.91;7377770;19;20006;-50
2022/07/27 08:30:30;;;;;;;1.48;0.52;;;;;;;21.03;55.82;101480.28;7385244;19;20010;-51
2022/07/27 08:33:21;;;;;;;2.22;0.40;;;;;;;21.63;54.16;101486.03;7391182;19;20006;-48
2022/07/27 08:36:13;;;;;;;1.67;0.50;;;;;;;22.26;53.11;101476.69;7388636;19;20027;-50
2022/07/27 08:38:49;;;;;;;2.72;1.02;;;;;;;22.70;52.01;101485.44;7389157;19;20011;-51
2022/07/27 08:56:16;;;;;;;2.45;0.50;;;;;;;21.82;48.92;101485.59;7380999;19;20107;-48
2022/07/27 08:59:07;;;;;;;2.35;0.70;;;;;;;21.59;47.75;101486.00;7381959;19;20007;-52
2022/07/27 09:02:16;;;;;;;1.20;0.40;;;;;;;21.29;47.14;101481.97;7383117;19;20010;-51
2022/07/27 09:05:00;;;;;;;3.40;0.50;;;;;;;20.89;47.05;101477.44;7380090;19;20018;-49
2022/07/27 09:11:19;;;;;;;2.58;0.60;;;;;;;20.12;48.98;101494.72;7385252;19;20017;-50
2022/07/27 09:18:21;;;;;;;2.70;0.63;;;;;;;19.26;50.51;101470.72;7386857;19;20034;-48
2022/07/27 09:25:38;;;;;;;2.08;0.50;;;;;;;19.01;51.58;101485.72;7386458;19;20027;-47
2022/07/27 09:28:56;;;;;;;1.30;0.57;;;;;;;18.90;51.54;101476.38;7388575;19;20014;-48
2022/07/27 09:31:48;;;;;;;1.45;0.77;;;;;;;18.79;51.49;101479.84;7387064;19;20006;-47
2022/07/27 09:34:37;;;;;;;0.88;0.77;;;;;;;18.78;51.93;101477.41;7387247;19;19998;-51
2022/07/27 09:37:27;;;;;;;1.48;0.60;;;;;;;18.74;53.07;101476.59;7386373;19;20021;-46
2022/07/27 09:48:11;;;;;;;2.67;0.65;;;;;;;18.66;54.09;101472.09;7378980;19;20009;-49
2022/07/27 09:55:40;;;;;;;1.65;0.70;;;;;;;18.89;54.43;101466.31;7381957;19;20048;-50
2022/07/27 09:58:47;;;;;;;1.85;0.50;;;;;;;18.97;53.55;101462.41;7381298;19;20034;-50
2022/07/27 10:01:21;;;;;;;0.68;0.50;;;;;;;18.97;53.70;101466.00;7363745;19;20102;-49
2022/07/27 10:03:52;;;;;;;0.95;0.43;;;;;;;18.96;53.48;101467.19;7356285;19;20015;-51
2022/07/27 10:06:21;;;;;;;7.18;1.08;;;;;;;19.02;53.39;101467.66;7380223;19;20014;-49
2022/07/27 10:12:55;;;;;;;0.70;0.65;;;;;;;19.10;52.66;101467.34;7385220;19;19998;-52
2022/07/27 10:15:24;;;;;;;2.25;0.50;;;;;;;19.17;53.23;101463.78;7382635;19;20689;-52
2022/07/27 10:25:10;;;;;;;1.10;0.20;;;;;;;19.30;51.25;101468.75;7383551;19;20528;-49
2022/07/27 10:45:18;;;;;;;0.93;0.30;;;;;;;19.16;50.89;101462.19;7395783;19;20018;-47
2022/07/27 10:52:40;;;;;;;2.42;0.40;;;;;;;19.00;49.63;101459.63;7403531;19;20006;-49
2022/07/27 11:24:04;;;;;;;1.95;0.68;;;;;;;19.32;49.13;101451.53;7392693;19;20054;-48
2022/07/27 11:26:49;;;;;;;3.78;0.40;;;;;;;19.37;49.19;101451.16;7399318;19;20015;-49
2022/07/27 11:29:22;;;;;;;0.50;0.20;;;;;;;19.31;49.73;101452.72;7401188;19;20047;-48
2022/07/27 11:31:53;;;;;;;2.53;0.43;;;;;;;19.37;50.02;101452.00;7395462;19;20021;-55
2022/07/27 11:38:02;;;;;;;0.82;0.47;;;;;;;19.34;49.95;101446.31;7391578;19;20114;-53
2022/07/27 11:40:53;;;;;;;0.45;0.30;;;;;;;19.26;49.63;101447.44;7400868;19;20364;-49
2022/07/27 12:02:01;;;;;;;3.47;0.50;;;;;;;19.97;47.86;101431.97;7397666;19;20022;-56
2022/07/27 12:05:19;;;;;;;0.70;0.35;;;;;;;20.04;45.12;101432.81;7393781;19;20015;-54
2022/07/27 12:18:58;;;;;;;1.13;0.20;;;;;;;20.91;46.05;101416.72;7399866;19;20022;-47
2022/07/27 12:28:30;;;;;;;1.13;0.28;;;;;;;21.13;44.57;101412.75;7396492;19;20372;-54
2022/07/27 12:31:14;;;;;;;2.47;0.30;;;;;;;21.27;44.67;101413.94;7396555;19;20500;-50
2022/07/27 12:33:43;;;;;;;1.35;0.55;;;;;;;21.36;44.86;101415.19;7398181;19;20484;-47
2022/07/27 12:36:40;;;;;;;3.30;0.30;;;;;;;21.41;43.29;101399.88;7382745;19;20549;-51
2022/07/27 12:39:07;;;;;;;0.55;0.25;;;;;;;21.46;44.28;101399.47;7380980;19;20021;-48
2022/07/27 12:41:38;;;;;;;2.97;0.88;;;;;;;21.51;44.29;101399.88;7387864;19;20019;-47
2022/07/27 12:44:12;;;;;;;0.65;0.30;;;;;;;21.39;43.88;101397.47;7391219;19;20130;-47
2022/07/27 12:50:39;;;;;;;0.98;0.35;;;;;;;21.10;43.89;101393.81;7395443;19;20021;-52
2022/07/27 12:53:28;;;;;;;1.23;0.30;;;;;;;21.01;43.49;101384.16;7395102;19;20017;-49
2022/07/27 12:56:16;;;;;;;2.63;0.32;;;;;;;20.93;43.40;101383.34;7398460;19;20026;-47
2022/07/27 12:59:16;;;;;;;1.10;0.20;;;;;;;20.89;43.23;101387.34;7397517;19;20366;-52
2022/07/27 13:01:43;;;;;;;0.32;0.32;;;;;;;20.76;43.66;101386.13;7396677;19;20051;-48
2022/07/27 13:04:12;;;;;;;1.75;0.30;;;;;;;20.75;43.49;101387.31;7396147;19;20010;-67
2022/07/27 13:06:52;;;;;;;0.93;0.28;;;;;;;20.69;43.28;101383.28;7392928;19;20530;-48
2022/07/27 13:09:19;;;;;;;2.35;0.80;;;;;;;20.61;43.56;101382.47;7395349;19;20014;-47
2022/07/27 13:11:48;;;;;;;8.20;1.05;;;;;;;20.46;43.58;101381.63;7397212;19;20040;-49
2022/07/27 13:14:17;;;;;;;3.10;1.23;;;;;;;20.27;44.15;101375.53;7398767;19;20017;-49
2022/07/27 13:16:44;;;;;;;1.08;0.28;;;;;;;20.20;44.41;101372.66;7394984;19;20047;-51
2022/07/27 13:23:15;;;;;;;2.13;0.52;;;;;;;20.20;44.54;101370.63;7391430;19;20002;-51
2022/07/27 13:44:06;;;;;;;1.75;0.50;;;;;;;20.50;46.24;101381.63;7396234;19;20015;-52
2022/07/27 13:51:11;;;;;;;1.65;0.47;;;;;;;20.71;45.92;101376.06;7395955;19;20074;-46
2022/07/27 13:53:39;;;;;;;4.88;0.52;;;;;;;20.66;45.79;101379.25;7397619;19;20015;-46
2022/07/27 13:56:06;;;;;;;1.08;0.40;;;;;;;20.64;45.89;101376.03;7397471;19;20034;-46
2022/07/27 13:58:39;;;;;;;1.80;0.50;;;;;;;20.69;46.14;101377.66;7393938;19;20006;-50
2022/07/27 14:11:57;;;;;;;2.17;0.80;;;;;;;20.50;46.26;101361.94;7391979;19;20010;-54
2022/07/27 14:14:26;;;;;;;0.93;0.40;;;;;;;20.51;46.20;101360.75;7392757;19;20011;-53
2022/07/27 14:27:36;;;;;;;7.75;2.72;;;;;;;20.54;45.15;101343.84;7394700;19;20022;-52
2022/07/27 14:41:18;;;;;;;0.75;0.38;;;;;;;20.44;45.03;101343.81;7400960;19;20011;-56
2022/07/27 14:43:46;;;;;;;7.07;2.35;;;;;;;20.36;45.04;101343.00;7398891;19;20017;-48
2022/07/27 14:56:21;;;;;;;1.52;0.50;;;;;;;20.47;45.95;101326.16;7402605;19;20034;-51
2022/07/27 15:16:23;;;;;;;4.10;1.42;;;;;;;20.03;44.48;101327.22;7400097;19;20022;-52
2022/07/27 15:18:51;;;;;;;0.90;0.30;;;;;;;19.99;44.31;101329.19;7399947;19;20010;-52
2022/07/27 15:25:27;;;;;;;0.30;0.20;;;;;;;20.01;44.31;101328.81;7402874;19;20007;-47
2022/07/27 15:28:15;;;;;;;0.88;0.30;;;;;;;19.93;44.34;101322.34;7398360;19;20018;-47
2022/07/27 15:35:04;;;;;;;0.20;0.20;;;;;;;19.93;44.43;101311.13;7400256;19;20015;-60
2022/07/27 15:37:55;;;;;;;0.63;0.20;;;;;;;20.03;44.38;101304.72;7398322;19;20014;-52
2022/07/27 15:50:49;;;;;;;0.60;0.30;;;;;;;20.05;43.58;101298.69;7397761;19;20006;-49
2022/07/27 16:18:30;;;;;;;3.50;0.30;;;;;;;19.78;46.05;101278.50;7391069;19;20013;-52
2022/07/27 16:24:50;;;;;;;0.47;0.30;;;;;;;19.76;45.76;101269.69;7393272;19;20023;-50
2022/07/27 16:27:19;;;;;;;0.25;0.25;;;;;;;19.77;46.05;101270.50;7396726;19;20018;-54
2022/07/27 16:33:27;;;;;;;0.57;0.57;;;;;;;19.75;46.15;101270.09;7398789;19;20484;-50
2022/07/27 16:35:56;;;;;;;0.30;0.30;;;;;;;19.68;46.11;101273.66;7398232;19;20349;-54
2022/07/27 16:45:35;;;;;;;0.30;0.30;;;;;;;19.42;46.67;101260.69;7398039;19;20328;-48
2022/07/27 16:51:53;;;;;;;2.20;0.30;;;;;;;19.21;47.49;101256.91;7400190;19;20021;-48
2022/07/27 17:01:14;;;;;;;0.10;0.10;;;;;;;19.22;48.14;101252.91;7397489;19;19907;-56
2022/07/27 17:07:29;;;;;;;0.38;0.38;;;;;;;19.32;48.60;101249.38;7397221;19;20471;-48
2022/07/27 17:09:57;;;;;;;0.65;0.40;;;;;;;19.36;48.88;101248.19;7384116;19;20013;-55
2022/07/27 17:12:25;;;;;;;1.05;0.45;;;;;;;19.39;48.81;101253.03;7377981;19;20011;-50
2022/07/27 17:14:52;;;;;;;1.00;0.57;;;;;;;19.38;49.11;101253.41;7380644;19;20006;-49
2022/07/27 17:17:20;;;;;;;1.30;0.70;;;;;;;19.44;49.14;101252.66;7384263;19;20017;-48
2022/07/27 17:19:48;;;;;;;2.67;0.88;;;;;;;19.37;49.32;101254.59;7385194;19;20018;-48
2022/07/27 17:25:41;;;;;;;2.30;0.60;;;;;;;19.24;49.64;101247.72;7386797;19;20014;-49
2022/07/27 17:28:09;;;;;;;0.93;0.60;;;;;;;19.21;49.45;101256.91;7395538;19;20006;-53
2022/07/27 17:30:37;;;;;;;0.80;0.40;;;;;;;18.97;49.46;101265.97;7397565;19;20460;-49
2022/07/27 17:37:01;;;;;;;0.52;0.47;;;;;;;18.68;50.52;101248.91;7397390;19;20428;-50
2022/07/27 17:39:38;;;;;;;1.40;0.40;;;;;;;18.63;50.69;101245.66;7384962;19;20011;-50
2022/07/27 17:45:37;;;;;;;2.50;0.90;;;;;;;18.76;51.18;101239.38;7393023;19;20030;-51
2022/07/27 17:59:16;;;;;;;2.20;0.40;;;;;;;18.99;50.00;101218.66;7394605;19;20047;-50
2022/07/27 18:02:24;;;;;;;0.43;0.43;;;;;;;19.08;49.95;101238.78;7396150;19;20011;-46
2022/07/27 18:05:12;;;;;;;1.25;0.52;;;;;;;19.11;49.71;101238.00;7393170;19;20006;-46
2022/07/27 18:08:50;;;;;;;0.60;0.50;;;;;;;19.06;49.47;101232.75;7397089;19;20487;-47
2022/07/27 18:11:36;;;;;;;4.35;2.05;;;;;;;19.04;50.06;101243.56;7395480;19;20082;-44
2022/07/27 18:14:10;;;;;;;0.95;0.77;;;;;;;19.01;49.92;101233.13;7401081;19;20011;-47
2022/07/27 18:16:39;;;;;;;1.15;0.70;;;;;;;19.04;49.79;101232.31;7388993;19;20007;-46
2022/07/27 18:19:10;;;;;;;1.35;0.50;;;;;;;19.12;49.60;101239.59;7400842;19;20018;-58
2022/07/27 18:25:06;;;;;;;0.85;0.75;;;;;;;18.95;49.70;101217.84;7384519;19;20198;-47
2022/07/27 18:28:22;;;;;;;0.40;0.30;;;;;;;18.95;49.73;101234.69;7387905;19;20022;-42
2022/07/27 18:30:52;;;;;;;2.20;1.05;;;;;;;18.90;49.27;101230.25;7382049;19;20025;-42
2022/07/27 18:33:26;;;;;;;0.70;0.50;;;;;;;18.82;49.58;101223.75;7380708;19;20018;-42
2022/07/27 18:36:24;;;;;;;0.20;0.20;;;;;;;18.80;49.03;101231.75;7371442;19;20020;-44
2022/07/27 18:39:23;;;;;;;0.28;0.25;;;;;;;18.75;49.51;101229.31;7380551;19;20015;-43
2022/07/27 18:42:53;;;;;;;0.30;0.30;;;;;;;18.70;49.60;101229.69;7378408;19;20379;-49
2022/07/27 18:45:22;;;;;;;0.90;0.35;;;;;;;18.71;49.93;101231.31;7372932;19;20467;-52
2022/07/27 18:48:01;;;;;;;1.75;0.40;;;;;;;18.71;49.68;101228.50;7381906;19;20014;-52
2022/07/27 18:50:38;;;;;;;0.10;0.10;;;;;;;18.59;49.78;101220.38;7378340;19;20146;-47
2022/07/27 18:53:07;;;;;;;1.58;1.05;;;;;;;18.52;50.10;101222.31;7379870;19;20017;-53
2022/07/27 19:02:50;;;;;;;0.40;0.30;;;;;;;18.27;50.85;101229.69;7384387;19;20018;-46
2022/07/27 19:05:49;;;;;;;0.60;0.40;;;;;;;18.29;50.95;101225.31;7387410;19;20502;-48
2022/07/27 19:12:08;;;;;;;0.30;0.30;;;;;;;18.27;50.90;101212.88;7383192;19;20021;-49
2022/07/27 19:14:37;;;;;;;0.80;0.40;;;;;;;18.22;50.80;101214.00;7384297;19;20064;-51
2022/07/27 19:17:25;;;;;;;0.82;0.30;;;;;;;18.19;51.06;101209.16;7378985;19;20018;-52
2022/07/27 19:31:43;;;;;;;0.68;0.30;;;;;;;17.97;51.56;101216.56;7380896;19;20015;-52
2022/07/27 19:34:11;;;;;;;0.50;0.30;;;;;;;17.99;51.53;101210.56;7382446;19;20017;-47
2022/07/27 19:36:38;;;;;;;0.30;0.30;;;;;;;18.00;51.83;101217.78;7382679;19;20014;-53
2022/07/27 19:39:06;;;;;;;0.63;0.40;;;;;;;17.95;51.43;101215.34;7384469;19;20006;-48
2022/07/27 19:41:34;;;;;;;0.80;0.52;;;;;;;17.94;51.65;101210.91;7381504;19;20283;-47
2022/07/27 19:44:04;;;;;;;0.63;0.50;;;;;;;17.90;51.71;101216.47;7383247;19;20022;-47
2022/07/27 19:46:32;;;;;;;0.95;0.40;;;;;;;17.86;51.50;101212.03;7382294;19;20025;-48
2022/07/27 19:49:01;;;;;;;0.57;0.45;;;;;;;17.73;52.07;101216.28;7381141;19;20122;-52
2022/07/27 19:51:28;;;;;;;2.10;0.70;;;;;;;17.66;52.64;101219.00;7377423;19;20018;-52
2022/07/27 19:57:42;;;;;;;0.40;0.40;;;;;;;17.52;53.08;101209.22;7385933;19;20010;-55
2022/07/27 20:00:33;;;;;;;1.08;0.45;;;;;;;17.47;53.58;101217.91;7379926;19;20038;-48
2022/07/27 20:03:21;;;;;;;1.30;0.90;;;;;;;17.43;53.48;101217.06;7383947;19;20041;-51
2022/07/27 20:06:10;;;;;;;1.65;0.90;;;;;;;17.40;53.79;101223.44;7383005;19;20045;-47
2022/07/27 20:08:58;;;;;;;2.28;0.60;;;;;;;17.38;54.71;101225.00;7387000;19;20010;-51
2022/07/27 20:11:47;;;;;;;1.83;0.60;;;;;;;17.39;54.74;101221.03;7381779;19;20025;-55
2022/07/27 20:18:36;;;;;;;1.08;0.40;;;;;;;17.30;55.16;101212.09;7385789;19;20028;-53
2022/07/27 20:21:25;;;;;;;0.93;0.30;;;;;;;17.27;55.52;101210.88;7380490;19;20062;-56
2022/07/27 20:24:13;;;;;;;1.15;0.60;;;;;;;17.29;55.55;101214.06;7384215;19;20086;-47
2022/07/27 20:27:02;;;;;;;1.13;0.38;;;;;;;17.26;55.51;101209.25;7383328;19;20671;-47
2022/07/27 20:29:50;;;;;;;3.95;0.68;;;;;;;17.23;56.26;101212.00;7382960;19;20015;-49
2022/07/27 20:32:39;;;;;;;1.10;0.40;;;;;;;17.27;56.37;101207.25;7383503;19;20021;-49
2022/07/27 20:35:26;;;;;;;1.38;0.30;;;;;;;17.27;56.14;101207.25;7384060;19;20023;-52
2022/07/27 20:42:14;;;;;;;3.13;0.63;;;;;;;17.22;56.33;101211.19;7393035;19;20037;-54
2022/07/27 20:45:03;;;;;;;1.00;0.47;;;;;;;17.15;56.51;101213.91;7393986;19;20039;-56
2022/07/27 20:47:50;;;;;;;1.92;0.50;;;;;;;17.14;57.04;101215.06;7392922;19;20010;-56
2022/07/27 20:50:38;;;;;;;1.38;0.57;;;;;;;17.16;57.01;101215.50;7390849;19;20006;-51
2022/07/27 20:53:26;;;;;;;0.70;0.57;;;;;;;17.11;57.25;101206.63;7395910;19;20023;-53
2022/07/27 20:56:14;;;;;;;2.63;0.40;;;;;;;17.04;57.15;101207.34;7394485;19;20010;-51
2022/07/27 20:59:02;;;;;;;0.52;0.47;;;;;;;16.99;57.22;101202.88;7387058;19;20007;-56
2022/07/27 21:05:41;;;;;;;1.30;0.50;;;;;;;16.93;57.69;101197.97;7384932;19;20026;-52
2022/07/27 21:12:06;;;;;;;1.08;0.52;;;;;;;16.76;57.61;101201.34;7384254;19;20033;-48
2022/07/27 21:14:40;;;;;;;4.68;2.25;;;;;;;16.76;57.63;101198.53;7396896;19;20017;-54
2022/07/27 21:17:16;;;;;;;2.10;1.08;;;;;;;16.72;57.52;101197.66;7382479;19;21241;-57
2022/07/27 21:19:47;;;;;;;1.35;0.80;;;;;;;16.70;57.76;101189.66;7391866;19;20087;-53
2022/07/27 21:33:33;;;;;;;1.70;1.27;;;;;;;16.57;57.59;101198.63;7400849;19;20017;-52
2022/07/27 21:36:26;;;;;;;2.15;1.10;;;;;;;16.54;57.74;101210.56;7398816;19;20093;-53
2022/07/27 21:39:18;;;;;;;1.00;0.70;;;;;;;16.56;57.86;101199.78;7399254;19;20024;-50
2022/07/27 21:42:06;;;;;;;1.40;0.73;;;;;;;16.57;58.14;101199.44;7392854;19;20298;-53
2022/07/27 21:44:54;;;;;;;1.25;1.13;;;;;;;16.53;58.33;101204.16;7396004;19;20622;-51